Blue Star Naxos — SZUI — position and weather

sailwx.info

Track history (hours):
 
Tides and Currents Weather Stations Pressure Air Temp Water Temp Dewpoint Dewpoint Depression Visibility Wind Speed Wind Dir Waves Ship Positions

Blue Star Naxos

Last reported at 2014-Jul-29 06:19 UTC. Time now 2014-Jul-30 09:13 UTC.
Position N 37°57' E 023°38'.

Length 124 m; draft 5 m.

Type: Passenger vessel. MMSI: 239923000.

Date/timePositionNaut miles runAvg speedWind from/ knotsBaromVisibWave heightAir tempDewpointWater temp
2014-Jul-29 06:19N 37°57' E 023°38'0 0.0
2014-Jul-29 05:33N 37°57' E 023°38'0 0.5
2014-Jul-29 04:34N 37°57' E 023°38'0 0.0
2014-Jul-29 03:33N 37°57' E 023°38'0 0.0
2014-Jul-29 02:34N 37°57' E 023°38'0 0.0
2014-Jul-29 01:34N 37°57' E 023°38'0 0.0
2014-Jul-29 00:34N 37°57' E 023°38'0 0.0
2014-Jul-28 23:34N 37°57' E 023°38'0 0.0
2014-Jul-28 22:34N 37°57' E 023°38'0 0.0
2014-Jul-28 21:33N 37°57' E 023°38'0 0.0
2014-Jul-28 20:34N 37°57' E 023°38'0 0.0
2014-Jul-28 19:34N 37°57' E 023°38'1615.8
2014-Jul-28 18:33N 37°42' E 023°47'3120.6
2014-Jul-28 17:03N 37°31' E 024°23'1020.7
2014-Jul-28 16:33N 37°31' E 024°36'1817.6
2014-Jul-28 15:33N 37°26' E 024°57'6 5.8
2014-Jul-28 14:33N 37°29' E 025°03'6 5.7
2014-Jul-28 13:33N 37°32' E 025°09'0 0.0
2014-Jul-28 12:33N 37°32' E 025°09'4 3.8
2014-Jul-28 11:33N 37°30' E 025°13'6 5.4
2014-Jul-28 10:32N 37°28' E 025°20'7 7.0
2014-Jul-28 09:33N 37°31' E 025°12'1312.1
2014-Jul-28 08:30N 37°26' E 024°57'1111.8
2014-Jul-28 07:33N 37°31' E 024°44'2822.7
2014-Jul-28 06:20N 37°33' E 024°09'1823.0
2014-Jul-28 05:33N 37°39' E 023°48'2019.6
2014-Jul-28 04:33N 37°57' E 023°38'0 0.3
2014-Jul-28 03:33N 37°57' E 023°38'0 0.0
2014-Jul-28 02:33N 37°57' E 023°38'0 0.0
2014-Jul-28 01:33N 37°57' E 023°38'0 0.0
2014-Jul-28 00:33N 37°57' E 023°38'0 0.0
2014-Jul-27 23:33N 37°57' E 023°38'0 0.0
2014-Jul-27 22:33N 37°57' E 023°38'0 0.0
2014-Jul-27 21:33N 37°57' E 023°38'0 0.0
2014-Jul-27 20:33N 37°57' E 023°38'0 0.0
2014-Jul-27 19:33N 37°57' E 023°38'0 0.0
2014-Jul-27 18:33N 37°57' E 023°38'0 0.0
2014-Jul-27 17:33N 37°57' E 023°38'3 3.0
2014-Jul-27 16:33N 37°54' E 023°38'4220.9
2014-Jul-27 14:32N 37°31' E 024°23'2722.5
2014-Jul-27 13:21N 37°29' E 024°57'4 4.4
2014-Jul-27 12:29N 37°28' E 025°01'910.0
2014-Jul-27 11:33N 37°30' E 025°13'6 5.6
2014-Jul-27 10:33N 37°28' E 025°19'5 4.8
2014-Jul-27 09:33N 37°29' E 025°14'1413.3
2014-Jul-27 08:30N 37°26' E 024°57'1111.6
2014-Jul-27 07:33N 37°31' E 024°44'4622.6
2014-Jul-27 05:32N 37°39' E 023°47'19 3.2
2014-Jul-26 23:33N 37°57' E 023°38'0 0.0
2014-Jul-26 22:34N 37°57' E 023°38'0 0.0
2014-Jul-26 21:34N 37°57' E 023°38'0 0.0
2014-Jul-26 20:34N 37°57' E 023°38'0 0.0
2014-Jul-26 19:33N 37°57' E 023°38'0 0.0
2014-Jul-26 18:33N 37°57' E 023°38'0 0.0
2014-Jul-26 17:34N 37°57' E 023°38'2 1.8
2014-Jul-26 16:33N 37°55' E 023°37'2120.7
2014-Jul-26 15:32N 37°39' E 023°54'2622.6
2014-Jul-26 14:24N 37°31' E 024°25'2022.9
2014-Jul-26 13:31N 37°31' E 024°50'7 7.0
2014-Jul-26 12:33N 37°26' E 024°57'1313.6
2014-Jul-26 11:33N 37°30' E 025°13'6 5.7
2014-Jul-26 10:33N 37°28' E 025°19'9 9.1
2014-Jul-26 09:34N 37°32' E 025°09'1211.6
2014-Jul-26 08:32N 37°26' E 024°57'1212.6
2014-Jul-26 07:34N 37°31' E 024°42'4722.4
2014-Jul-26 05:27N 37°40' E 023°44'1718.9
2014-Jul-26 04:33N 37°57' E 023°38'0 0.0
2014-Jul-26 03:33N 37°57' E 023°38'1616.0
2014-Jul-26 02:33N 37°43' E 023°48'4522.4
2014-Jul-26 00:32N 37°15' E 024°33'2222.9
2014-Jul-25 23:33N 37°08' E 024°60'8 7.7
2014-Jul-25 22:32N 37°05' E 025°09'2222.0
2014-Jul-25 21:33N 37°12' E 024°43'5222.5
2014-Jul-25 19:16N 37°38' E 023°47'1622.2
2014-Jul-25 18:33N 37°52' E 023°38'5 5.0
2014-Jul-25 17:33N 37°57' E 023°38'1 1.5
2014-Jul-25 16:34N 37°56' E 023°37'4520.6
2014-Jul-25 14:22N 37°31' E 024°24'2623.0
2014-Jul-25 13:15N 37°30' E 024°57'3 4.6
2014-Jul-25 12:33N 37°26' E 024°57'1313.0
2014-Jul-25 11:33N 37°30' E 025°12'6 6.2
2014-Jul-25 10:33N 37°28' E 025°20'9 9.2
2014-Jul-25 09:33N 37°32' E 025°09'1211.8
2014-Jul-25 08:34N 37°26' E 024°57'1413.7
2014-Jul-25 07:32N 37°31' E 024°40'2622.1
2014-Jul-25 06:20N 37°33' E 024°07'1922.8
2014-Jul-25 05:30N 37°40' E 023°44'18 2.0
2014-Jul-24 20:33N 37°57' E 023°38'0 0.0
2014-Jul-24 19:33N 37°57' E 023°38'0 0.0
2014-Jul-24 18:33N 37°57' E 023°38'0 0.0
2014-Jul-24 17:33N 37°57' E 023°38'2 1.7
2014-Jul-24 16:34N 37°55' E 023°37'4420.5
2014-Jul-24 14:24N 37°31' E 024°24'2622.6
2014-Jul-24 13:15N 37°29' E 024°57'3 4.9
2014-Jul-24 12:33N 37°26' E 024°57'1413.5
2014-Jul-24 11:33N 37°30' E 025°13'6 5.4
2014-Jul-24 10:32N 37°28' E 025°19'9 9.1
2014-Jul-24 09:33N 37°32' E 025°09'1211.5
2014-Jul-24 08:33N 37°26' E 024°57'1212.0
2014-Jul-24 07:33N 37°31' E 024°43'2522.2
2014-Jul-24 06:25N 37°32' E 024°11'2921.8
2014-Jul-24 05:05N 37°47' E 023°39'1019.1
2014-Jul-24 04:33N 37°57' E 023°38'0 0.1
2014-Jul-24 03:33N 37°57' E 023°38'0 0.0
2014-Jul-24 02:33N 37°57' E 023°38'0 0.0
2014-Jul-24 01:33N 37°57' E 023°38'0 0.0
2014-Jul-24 00:33N 37°57' E 023°38'0 0.0
2014-Jul-23 23:33N 37°57' E 023°38'0 0.0
2014-Jul-23 22:33N 37°57' E 023°38'0 0.0
2014-Jul-23 21:33N 37°57' E 023°38'0 0.0
2014-Jul-23 20:33N 37°57' E 023°38'0 0.0
2014-Jul-23 19:33N 37°57' E 023°38'0 0.0
2014-Jul-23 18:33N 37°57' E 023°38'0 0.0
2014-Jul-23 17:33N 37°57' E 023°38'2 2.2
2014-Jul-23 16:34N 37°55' E 023°38'4420.5
2014-Jul-23 14:25N 37°31' E 024°24'2621.9
2014-Jul-23 13:13N 37°29' E 024°57'4 4.7
2014-Jul-23 12:17N 37°29' E 025°03'810.6
2014-Jul-23 11:33N 37°30' E 025°12'6 6.1
2014-Jul-23 10:33N 37°28' E 025°20'4 4.1
2014-Jul-23 09:32N 37°29' E 025°15'1514.9
2014-Jul-23 08:32N 37°26' E 024°57'1211.8
2014-Jul-23 07:34N 37°31' E 024°43'2322.6
2014-Jul-23 06:32N 37°31' E 024°14'2523.0
2014-Jul-23 05:27N 37°39' E 023°44'18 3.7
2014-Jul-23 00:34N 37°57' E 023°38'0 0.0
2014-Jul-22 23:34N 37°57' E 023°38'0 0.0
2014-Jul-22 22:34N 37°57' E 023°38'0 0.0
2014-Jul-22 21:34N 37°57' E 023°38'0 0.0
2014-Jul-22 20:34N 37°57' E 023°38'0 0.0
2014-Jul-22 19:33N 37°57' E 023°38'0 0.0
2014-Jul-22 18:33N 37°57' E 023°38'0 0.0
2014-Jul-22 17:34N 37°57' E 023°38'1 1.2
2014-Jul-22 16:34N 37°56' E 023°37'2120.5
2014-Jul-22 15:32N 37°39' E 023°53'2522.5
2014-Jul-22 14:25N 37°31' E 024°23'2023.0
2014-Jul-22 13:33N 37°31' E 024°48'8 8.4
2014-Jul-22 12:33N 37°26' E 024°57'1414.0
2014-Jul-22 11:33N 37°30' E 025°14'5 5.0
2014-Jul-22 10:33N 37°28' E 025°19'6 5.9
2014-Jul-22 09:33N 37°30' E 025°13'1413.4
2014-Jul-22 08:33N 37°26' E 024°57'1111.1
2014-Jul-22 07:33N 37°31' E 024°44'2423.1
2014-Jul-22 06:32N 37°31' E 024°15'2723.0
2014-Jul-22 05:21N 37°41' E 023°43'1620.5
2014-Jul-22 04:33N 37°57' E 023°38'0 0.2
2014-Jul-22 03:32N 37°57' E 023°38'0 0.0
2014-Jul-22 02:33N 37°57' E 023°38'0 0.0
2014-Jul-22 01:33N 37°57' E 023°38'0 0.0
2014-Jul-22 00:31N 37°57' E 023°38'0 0.0
2014-Jul-21 23:33N 37°57' E 023°38'0 0.0
2014-Jul-21 22:31N 37°57' E 023°38'0 0.0
2014-Jul-21 21:33N 37°57' E 023°38'0 0.0
2014-Jul-21 20:33N 37°57' E 023°38'0 0.0
2014-Jul-21 20:18N 37°57' E 023°38'0 0.0
2014-Jul-21 19:32N 37°57' E 023°38'0 0.0
2014-Jul-21 18:33N 37°57' E 023°38'0 0.0
2014-Jul-21 17:33N 37°57' E 023°38'2 2.5
2014-Jul-21 16:33N 37°55' E 023°38'4420.9
2014-Jul-21 14:27N 37°31' E 024°24'2622.5
2014-Jul-21 13:18N 37°29' E 024°57'4 4.0
2014-Jul-21 12:20N 37°28' E 025°02'911.2
2014-Jul-21 11:34N 37°30' E 025°12'6 6.2
2014-Jul-21 10:34N 37°28' E 025°20'6 6.0
2014-Jul-21 09:33N 37°30' E 025°13'1312.5
2014-Jul-21 08:29N 37°26' E 024°57'1212.6
2014-Jul-21 07:31N 37°31' E 024°42'2522.7
2014-Jul-21 06:25N 37°32' E 024°11'2423.0
2014-Jul-21 05:24N 37°41' E 023°44'15 1.2
2014-Jul-20 16:33N 37°55' E 023°38'4420.8
2014-Jul-20 14:27N 37°31' E 024°24'2622.8
2014-Jul-20 13:18N 37°30' E 024°57'4 4.0
2014-Jul-20 12:22N 37°28' E 025°01'911.6
2014-Jul-20 11:33N 37°30' E 025°13'6 5.7
2014-Jul-20 10:33N 37°28' E 025°19'9 9.1
2014-Jul-20 09:33N 37°32' E 025°09'1211.6
2014-Jul-20 08:33N 37°26' E 024°57'1212.2
2014-Jul-20 07:33N 37°31' E 024°42'2222.3
2014-Jul-20 06:33N 37°30' E 024°14'38 2.7
2014-Jul-19 16:30N 37°55' E 023°38'4320.6
2014-Jul-19 14:23N 37°31' E 024°23'2022.8
2014-Jul-19 13:31N 37°31' E 024°48'9 8.6
2014-Jul-19 12:32N 37°26' E 024°57'1313.1
2014-Jul-19 11:33N 37°30' E 025°12'6 6.2
2014-Jul-19 10:33N 37°28' E 025°19'9 9.1
2014-Jul-19 09:34N 37°32' E 025°09'1111.3
2014-Jul-19 08:33N 37°26' E 024°57'1111.6
2014-Jul-19 07:33N 37°31' E 024°43'2522.7
2014-Jul-19 06:29N 37°32' E 024°12'  
Track history (hours):
 
Tides and Currents Weather Stations Pressure Air Temp Water Temp Dewpoint Dewpoint Depression Visibility Wind Speed Wind Dir Waves Ship Positions

Blue Star Naxos

Last reported at 2014-Jul-29 06:19 UTC. Time now 2014-Jul-30 09:13 UTC.
Position N 37°57' E 023°38'.

Length 124 m; draft 5 m.

Type: Passenger vessel. MMSI: 239923000.

Date/timePositionNaut miles runAvg speedWind from/ knotsBaromVisibWave heightAir tempDewpointWater temp
2014-Jul-29 06:19N 37°57' E 023°38'0 0.0
2014-Jul-29 05:33N 37°57' E 023°38'0 0.5
2014-Jul-29 04:34N 37°57' E 023°38'0 0.0
2014-Jul-29 03:33N 37°57' E 023°38'0 0.0
2014-Jul-29 02:34N 37°57' E 023°38'0 0.0
2014-Jul-29 01:34N 37°57' E 023°38'0 0.0
2014-Jul-29 00:34N 37°57' E 023°38'0 0.0
2014-Jul-28 23:34N 37°57' E 023°38'0 0.0
2014-Jul-28 22:34N 37°57' E 023°38'0 0.0
2014-Jul-28 21:33N 37°57' E 023°38'0 0.0
2014-Jul-28 20:34N 37°57' E 023°38'0 0.0
2014-Jul-28 19:34N 37°57' E 023°38'1615.8
2014-Jul-28 18:33N 37°42' E 023°47'3120.6
2014-Jul-28 17:03N 37°31' E 024°23'1020.7
2014-Jul-28 16:33N 37°31' E 024°36'1817.6
2014-Jul-28 15:33N 37°26' E 024°57'6 5.8
2014-Jul-28 14:33N 37°29' E 025°03'6 5.7
2014-Jul-28 13:33N 37°32' E 025°09'0 0.0
2014-Jul-28 12:33N 37°32' E 025°09'4 3.8
2014-Jul-28 11:33N 37°30' E 025°13'6 5.4
2014-Jul-28 10:32N 37°28' E 025°20'7 7.0
2014-Jul-28 09:33N 37°31' E 025°12'1312.1
2014-Jul-28 08:30N 37°26' E 024°57'1111.8
2014-Jul-28 07:33N 37°31' E 024°44'2822.7
2014-Jul-28 06:20N 37°33' E 024°09'1823.0
2014-Jul-28 05:33N 37°39' E 023°48'2019.6
2014-Jul-28 04:33N 37°57' E 023°38'0 0.3
2014-Jul-28 03:33N 37°57' E 023°38'0 0.0
2014-Jul-28 02:33N 37°57' E 023°38'0 0.0
2014-Jul-28 01:33N 37°57' E 023°38'0 0.0
2014-Jul-28 00:33N 37°57' E 023°38'0 0.0
2014-Jul-27 23:33N 37°57' E 023°38'0 0.0
2014-Jul-27 22:33N 37°57' E 023°38'0 0.0
2014-Jul-27 21:33N 37°57' E 023°38'0 0.0
2014-Jul-27 20:33N 37°57' E 023°38'0 0.0
2014-Jul-27 19:33N 37°57' E 023°38'0 0.0
2014-Jul-27 18:33N 37°57' E 023°38'0 0.0
2014-Jul-27 17:33N 37°57' E 023°38'3 3.0
2014-Jul-27 16:33N 37°54' E 023°38'4220.9
2014-Jul-27 14:32N 37°31' E 024°23'2722.5
2014-Jul-27 13:21N 37°29' E 024°57'4 4.4
2014-Jul-27 12:29N 37°28' E 025°01'910.0
2014-Jul-27 11:33N 37°30' E 025°13'6 5.6
2014-Jul-27 10:33N 37°28' E 025°19'5 4.8
2014-Jul-27 09:33N 37°29' E 025°14'1413.3
2014-Jul-27 08:30N 37°26' E 024°57'1111.6
2014-Jul-27 07:33N 37°31' E 024°44'4622.6
2014-Jul-27 05:32N 37°39' E 023°47'19 3.2
2014-Jul-26 23:33N 37°57' E 023°38'0 0.0
2014-Jul-26 22:34N 37°57' E 023°38'0 0.0
2014-Jul-26 21:34N 37°57' E 023°38'0 0.0
2014-Jul-26 20:34N 37°57' E 023°38'0 0.0
2014-Jul-26 19:33N 37°57' E 023°38'0 0.0
2014-Jul-26 18:33N 37°57' E 023°38'0 0.0
2014-Jul-26 17:34N 37°57' E 023°38'2 1.8
2014-Jul-26 16:33N 37°55' E 023°37'2120.7
2014-Jul-26 15:32N 37°39' E 023°54'2622.6
2014-Jul-26 14:24N 37°31' E 024°25'2022.9
2014-Jul-26 13:31N 37°31' E 024°50'7 7.0
2014-Jul-26 12:33N 37°26' E 024°57'1313.6
2014-Jul-26 11:33N 37°30' E 025°13'6 5.7
2014-Jul-26 10:33N 37°28' E 025°19'9 9.1
2014-Jul-26 09:34N 37°32' E 025°09'1211.6
2014-Jul-26 08:32N 37°26' E 024°57'1212.6
2014-Jul-26 07:34N 37°31' E 024°42'4722.4
2014-Jul-26 05:27N 37°40' E 023°44'1718.9
2014-Jul-26 04:33N 37°57' E 023°38'0 0.0
2014-Jul-26 03:33N 37°57' E 023°38'1616.0
2014-Jul-26 02:33N 37°43' E 023°48'4522.4
2014-Jul-26 00:32N 37°15' E 024°33'2222.9
2014-Jul-25 23:33N 37°08' E 024°60'8 7.7
2014-Jul-25 22:32N 37°05' E 025°09'2222.0
2014-Jul-25 21:33N 37°12' E 024°43'5222.5
2014-Jul-25 19:16N 37°38' E 023°47'1622.2
2014-Jul-25 18:33N 37°52' E 023°38'5 5.0
2014-Jul-25 17:33N 37°57' E 023°38'1 1.5
2014-Jul-25 16:34N 37°56' E 023°37'4520.6
2014-Jul-25 14:22N 37°31' E 024°24'2623.0
2014-Jul-25 13:15N 37°30' E 024°57'3 4.6
2014-Jul-25 12:33N 37°26' E 024°57'1313.0
2014-Jul-25 11:33N 37°30' E 025°12'6 6.2
2014-Jul-25 10:33N 37°28' E 025°20'9 9.2
2014-Jul-25 09:33N 37°32' E 025°09'1211.8
2014-Jul-25 08:34N 37°26' E 024°57'1413.7
2014-Jul-25 07:32N 37°31' E 024°40'2622.1
2014-Jul-25 06:20N 37°33' E 024°07'1922.8
2014-Jul-25 05:30N 37°40' E 023°44'18 2.0
2014-Jul-24 20:33N 37°57' E 023°38'0 0.0
2014-Jul-24 19:33N 37°57' E 023°38'0 0.0
2014-Jul-24 18:33N 37°57' E 023°38'0 0.0
2014-Jul-24 17:33N 37°57' E 023°38'2 1.7
2014-Jul-24 16:34N 37°55' E 023°37'4420.5
2014-Jul-24 14:24N 37°31' E 024°24'2622.6
2014-Jul-24 13:15N 37°29' E 024°57'3 4.9
2014-Jul-24 12:33N 37°26' E 024°57'1413.5
2014-Jul-24 11:33N 37°30' E 025°13'6 5.4
2014-Jul-24 10:32N 37°28' E 025°19'9 9.1
2014-Jul-24 09:33N 37°32' E 025°09'1211.5
2014-Jul-24 08:33N 37°26' E 024°57'1212.0
2014-Jul-24 07:33N 37°31' E 024°43'2522.2
2014-Jul-24 06:25N 37°32' E 024°11'2921.8
2014-Jul-24 05:05N 37°47' E 023°39'1019.1
2014-Jul-24 04:33N 37°57' E 023°38'0 0.1
2014-Jul-24 03:33N 37°57' E 023°38'0 0.0
2014-Jul-24 02:33N 37°57' E 023°38'0 0.0
2014-Jul-24 01:33N 37°57' E 023°38'0 0.0
2014-Jul-24 00:33N 37°57' E 023°38'0 0.0
2014-Jul-23 23:33N 37°57' E 023°38'0 0.0
2014-Jul-23 22:33N 37°57' E 023°38'0 0.0
2014-Jul-23 21:33N 37°57' E 023°38'0 0.0
2014-Jul-23 20:33N 37°57' E 023°38'0 0.0
2014-Jul-23 19:33N 37°57' E 023°38'0 0.0
2014-Jul-23 18:33N 37°57' E 023°38'0 0.0
2014-Jul-23 17:33N 37°57' E 023°38'2 2.2
2014-Jul-23 16:34N 37°55' E 023°38'4420.5
2014-Jul-23 14:25N 37°31' E 024°24'2621.9
2014-Jul-23 13:13N 37°29' E 024°57'4 4.7
2014-Jul-23 12:17N 37°29' E 025°03'810.6
2014-Jul-23 11:33N 37°30' E 025°12'6 6.1
2014-Jul-23 10:33N 37°28' E 025°20'4 4.1
2014-Jul-23 09:32N 37°29' E 025°15'1514.9
2014-Jul-23 08:32N 37°26' E 024°57'1211.8
2014-Jul-23 07:34N 37°31' E 024°43'2322.6
2014-Jul-23 06:32N 37°31' E 024°14'2523.0
2014-Jul-23 05:27N 37°39' E 023°44'18 3.7
2014-Jul-23 00:34N 37°57' E 023°38'0 0.0
2014-Jul-22 23:34N 37°57' E 023°38'0 0.0
2014-Jul-22 22:34N 37°57' E 023°38'0 0.0
2014-Jul-22 21:34N 37°57' E 023°38'0 0.0
2014-Jul-22 20:34N 37°57' E 023°38'0 0.0
2014-Jul-22 19:33N 37°57' E 023°38'0 0.0
2014-Jul-22 18:33N 37°57' E 023°38'0 0.0
2014-Jul-22 17:34N 37°57' E 023°38'1 1.2
2014-Jul-22 16:34N 37°56' E 023°37'2120.5
2014-Jul-22 15:32N 37°39' E 023°53'2522.5
2014-Jul-22 14:25N 37°31' E 024°23'2023.0
2014-Jul-22 13:33N 37°31' E 024°48'8 8.4
2014-Jul-22 12:33N 37°26' E 024°57'1414.0
2014-Jul-22 11:33N 37°30' E 025°14'5 5.0
2014-Jul-22 10:33N 37°28' E 025°19'6 5.9
2014-Jul-22 09:33N 37°30' E 025°13'1413.4
2014-Jul-22 08:33N 37°26' E 024°57'1111.1
2014-Jul-22 07:33N 37°31' E 024°44'2423.1
2014-Jul-22 06:32N 37°31' E 024°15'2723.0
2014-Jul-22 05:21N 37°41' E 023°43'1620.5
2014-Jul-22 04:33N 37°57' E 023°38'0 0.2
2014-Jul-22 03:32N 37°57' E 023°38'0 0.0
2014-Jul-22 02:33N 37°57' E 023°38'0 0.0
2014-Jul-22 01:33N 37°57' E 023°38'0 0.0
2014-Jul-22 00:31N 37°57' E 023°38'0 0.0
2014-Jul-21 23:33N 37°57' E 023°38'0 0.0
2014-Jul-21 22:31N 37°57' E 023°38'0 0.0
2014-Jul-21 21:33N 37°57' E 023°38'0 0.0
2014-Jul-21 20:33N 37°57' E 023°38'0 0.0
2014-Jul-21 20:18N 37°57' E 023°38'0 0.0
2014-Jul-21 19:32N 37°57' E 023°38'0 0.0
2014-Jul-21 18:33N 37°57' E 023°38'0 0.0
2014-Jul-21 17:33N 37°57' E 023°38'2 2.5
2014-Jul-21 16:33N 37°55' E 023°38'4420.9
2014-Jul-21 14:27N 37°31' E 024°24'2622.5
2014-Jul-21 13:18N 37°29' E 024°57'4 4.0
2014-Jul-21 12:20N 37°28' E 025°02'911.2
2014-Jul-21 11:34N 37°30' E 025°12'6 6.2
2014-Jul-21 10:34N 37°28' E 025°20'6 6.0
2014-Jul-21 09:33N 37°30' E 025°13'1312.5
2014-Jul-21 08:29N 37°26' E 024°57'1212.6
2014-Jul-21 07:31N 37°31' E 024°42'2522.7
2014-Jul-21 06:25N 37°32' E 024°11'2423.0
2014-Jul-21 05:24N 37°41' E 023°44'15 1.2
2014-Jul-20 16:33N 37°55' E 023°38'4420.8
2014-Jul-20 14:27N 37°31' E 024°24'2622.8
2014-Jul-20 13:18N 37°30' E 024°57'4 4.0
2014-Jul-20 12:22N 37°28' E 025°01'911.6
2014-Jul-20 11:33N 37°30' E 025°13'6 5.7
2014-Jul-20 10:33N 37°28' E 025°19'9 9.1
2014-Jul-20 09:33N 37°32' E 025°09'1211.6
2014-Jul-20 08:33N 37°26' E 024°57'1212.2
2014-Jul-20 07:33N 37°31' E 024°42'2222.3
2014-Jul-20 06:33N 37°30' E 024°14'38 2.7
2014-Jul-19 16:30N 37°55' E 023°38'4320.6
2014-Jul-19 14:23N 37°31' E 024°23'2022.8
2014-Jul-19 13:31N 37°31' E 024°48'9 8.6
2014-Jul-19 12:32N 37°26' E 024°57'1313.1
2014-Jul-19 11:33N 37°30' E 025°12'6 6.2
2014-Jul-19 10:33N 37°28' E 025°19'9 9.1
2014-Jul-19 09:34N 37°32' E 025°09'1111.3
2014-Jul-19 08:33N 37°26' E 024°57'1111.6
2014-Jul-19 07:33N 37°31' E 024°43'2522.7
2014-Jul-19 06:29N 37°32' E 024°12'  

Dump ship's entire track history